Hovedside
METAR-TAF:

METAR-TAF

Lufthavner :

Tartu, Estland

Tartu lufthavn

breddegrad: 58-18N, lengdegrad: 026-44E, høyde over havet: 59 m

Gjeldene værobservasjon

Denne rapporten ble laget for 47 minutter siden, klokken 21:50 UTC
Vind 2 kt fra Øst-nordøst
Temperatur 13°C
Luftfuktighet 88%
Trykk 1010 hPa
Sikt 10 km eller mer

METAR: EETU 242150Z AUTO 06002KT 9999 NCD 13/11 Q1010

Tid: 01:37 (22:37 UTC)

Varsel

Denne rapporten ble laget for 2 timer og 37 minutter siden, klokken 20:00 UTC
Varsel gyldig fra 24. klokken 21 UTC til 25. klokken 03 UTC
Vind 5 kt fra Nord-nordøst
Sikt 10 km eller mer
Spredte skyer i en høyde av 4000 ft
Midlertidig
fra 24. klokken 22 UTC til 25. klokken 03 UTC
Sikt: 1000 m
Brutte skyer i en høyde av 200 ft
dis

TAF: EETU 242000Z 2421/2503 02005KT 9999 SCT040 TEMPO 2422/2503 1000 BR BKN002

Værobservasjoner og værvarsel for over 4000 flyplasser (METAR- og TAF-rapporter).

Tilgjengelige stasjoner er representert av de røde og gule prikkene på kartet.

Hold musepekeren over prikken for å se navnet på stasjonen.

Klikk så for å se værobservasjoner og -varsler.

For å forandre kartet kan du klikke på den grønne knappen med svart kryss for å zoome inn, på den grønne knappen med strek for å zoome ut, eller på de grønne pilene for å se tilstøtende kart.


METAR-TAF: